Time;durP1;ratioP1;P1;durP2;ratioP2;P2;SDS_P1;SDS_P2;PMS_P1;PMS_P2;Temp;Humidity;BMP_temperature;BMP_pressure;BME280_temperature;BME280_humidity;BME280_pressure;Samples;Min_cycle;Max_cycle;Signal;HPM_P1;HPM_P2
2021/04/29 00:01:42;;;;;;;4.77;4.37;;;;;;;;;;5051695;28;20405;-54
2021/04/29 00:04:08;;;;;;;5.07;4.57;;;;;;;;;;5051612;28;20412;-54
2021/04/29 00:06:34;;;;;;;5.53;4.50;;;;;;;;;;5051584;28;20452;-54
2021/04/29 00:09:00;;;;;;;8.40;4.40;;;;;;;;;;5051537;28;20425;-54
2021/04/29 00:11:26;;;;;;;4.33;4.00;;;;;;;;;;5051575;28;20397;-54
2021/04/29 00:13:52;;;;;;;6.10;4.20;;;;;;;;;;5051763;28;20411;-54
2021/04/29 00:16:18;;;;;;;5.27;4.53;;;;;;;;;;5051397;28;20448;-54
2021/04/29 00:18:44;;;;;;;4.97;4.30;;;;;;;;;;5050957;28;20449;-54
2021/04/29 00:21:10;;;;;;;5.00;4.60;;;;;;;;;;5051440;28;20401;-54
2021/04/29 00:23:36;;;;;;;4.90;4.40;;;;;;;;;;5051287;28;20804;-54
2021/04/29 00:26:02;;;;;;;7.77;4.60;;;;;;;;;;5051337;28;20415;-54
2021/04/29 00:28:28;;;;;;;5.03;4.60;;;;;;;;;;5051484;28;20432;-54
2021/04/29 00:30:54;;;;;;;4.97;4.57;;;;;;;;;;5051042;28;20401;-54
2021/04/29 00:33:20;;;;;;;4.80;4.33;;;;;;;;;;5051015;28;20376;-54
2021/04/29 00:35:46;;;;;;;4.97;4.47;;;;;;;;;;5051239;28;20461;-54
2021/04/29 00:38:14;;;;;;;4.83;4.40;;;;;;;;;;5050788;28;20443;-54
2021/04/29 00:40:41;;;;;;;4.60;4.20;;;;;;;;;;5050831;28;20459;-54
2021/04/29 00:43:09;;;;;;;4.97;4.47;;;;;;;;;;5051052;28;20389;-54
2021/04/29 00:45:35;;;;;;;5.77;4.37;;;;;;;;;;5050934;28;20453;-55
2021/04/29 00:48:01;;;;;;;4.90;4.27;;;;;;;;;;5051142;28;20424;-54
2021/04/29 00:50:27;;;;;;;6.20;3.90;;;;;;;;;;5050652;28;20408;-54
2021/04/29 00:52:53;;;;;;;4.47;3.80;;;;;;;;;;5050947;28;20413;-54
2021/04/29 00:55:19;;;;;;;6.83;4.53;;;;;;;;;;5050922;28;20433;-54
2021/04/29 00:57:45;;;;;;;5.33;4.27;;;;;;;;;;5050792;28;20653;-54
2021/04/29 01:00:12;;;;;;;3.90;3.60;;;;;;;;;;5050625;28;20476;-54
2021/04/29 01:02:40;;;;;;;8.27;4.07;;;;;;;;;;5049968;28;20376;-54
2021/04/29 01:05:17;;;;;;;4.63;3.47;;;;;;;;;;5050069;28;20375;-54
2021/04/29 01:07:46;;;;;;;4.50;4.20;;;;;;;;;;5049736;28;20685;-54
2021/04/29 01:10:14;;;;;;;3.83;3.53;;;;;;;;;;5050405;28;20404;-54
2021/04/29 01:12:45;;;;;;;6.43;3.60;;;;;;;;;;5050700;28;20393;-54
2021/04/29 01:15:11;;;;;;;4.17;3.83;;;;;;;;;;5050395;28;20452;-55
2021/04/29 01:17:38;;;;;;;6.47;4.90;;;;;;;;;;5050634;28;20429;-54
2021/04/29 01:20:06;;;;;;;4.43;3.87;;;;;;;;;;5050236;28;20404;-54
2021/04/29 01:22:33;;;;;;;4.17;3.77;;;;;;;;;;5051330;28;20397;-54
2021/04/29 01:25:03;;;;;;;4.03;3.63;;;;;;;;;;5050626;28;20401;-54
2021/04/29 01:27:30;;;;;;;4.70;4.13;;;;;;;;;;5050548;28;20428;-54
2021/04/29 01:29:56;;;;;;;4.03;3.63;;;;;;;;;;5050590;28;20404;-54
2021/04/29 01:32:22;;;;;;;6.50;3.97;;;;;;;;;;5050625;28;20749;-54
2021/04/29 01:34:48;;;;;;;3.77;3.47;;;;;;;;;;5050448;28;20427;-54
2021/04/29 01:37:14;;;;;;;4.70;3.90;;;;;;;;;;5050245;28;20445;-54
2021/04/29 01:39:41;;;;;;;4.20;3.63;;;;;;;;;;5050155;28;20451;-54
2021/04/29 01:42:07;;;;;;;4.53;4.23;;;;;;;;;;5050423;28;20392;-54
2021/04/29 01:44:33;;;;;;;8.33;3.90;;;;;;;;;;5050483;28;20404;-54
2021/04/29 01:47:00;;;;;;;4.87;4.23;;;;;;;;;;5050495;28;20404;-54
2021/04/29 01:49:27;;;;;;;4.37;3.97;;;;;;;;;;5050057;28;20439;-54
2021/04/29 01:51:54;;;;;;;6.87;4.10;;;;;;;;;;5050257;28;20469;-54
2021/04/29 01:54:21;;;;;;;7.93;3.97;;;;;;;;;;5050333;28;20421;-54
2021/04/29 01:56:47;;;;;;;4.87;4.27;;;;;;;;;;5050305;28;20822;-54
2021/04/29 01:59:14;;;;;;;5.03;4.13;;;;;;;;;;5049900;28;20420;-54
2021/04/29 02:01:42;;;;;;;5.03;4.23;;;;;;;;;;5050065;28;20416;-54
2021/04/29 02:04:09;;;;;;;5.30;4.30;;;;;;;;;;5050019;28;20479;-54
2021/04/29 02:06:36;;;;;;;5.13;3.80;;;;;;;;;;5050039;28;20471;-55
2021/04/29 02:09:02;;;;;;;6.97;4.27;;;;;;;;;;5049743;28;20849;-55
2021/04/29 02:11:31;;;;;;;11.03;5.07;;;;;;;;;;5050029;28;20407;-54
2021/04/29 02:13:58;;;;;;;3.80;3.50;;;;;;;;;;5050069;28;20405;-54
2021/04/29 02:16:29;;;;;;;5.20;4.00;;;;;;;;;;5049830;28;20813;-54
2021/04/29 02:18:55;;;;;;;4.23;3.90;;;;;;;;;;5049659;28;20420;-54
2021/04/29 02:21:22;;;;;;;4.33;3.93;;;;;;;;;;5049883;28;20411;-54
2021/04/29 02:23:49;;;;;;;5.90;4.43;;;;;;;;;;5052829;28;20407;-54
2021/04/29 02:26:17;;;;;;;5.47;3.90;;;;;;;;;;5053547;28;20397;-54
2021/04/29 02:28:43;;;;;;;5.60;4.17;;;;;;;;;;5053238;28;20418;-54
2021/04/29 02:31:10;;;;;;;4.43;3.67;;;;;;;;;;5053425;28;20454;-54
2021/04/29 02:33:36;;;;;;;6.20;4.07;;;;;;;;;;5053392;28;20884;-54
2021/04/29 02:36:03;;;;;;;5.43;4.50;;;;;;;;;;5053668;28;20512;-54
2021/04/29 02:38:30;;;;;;;4.83;3.50;;;;;;;;;;5053143;28;20477;-54
2021/04/29 02:40:57;;;;;;;6.20;3.80;;;;;;;;;;5052918;28;20404;-54
2021/04/29 02:43:23;;;;;;;5.07;3.97;;;;;;;;;;5053348;28;20416;-54
2021/04/29 02:45:50;;;;;;;5.40;4.60;;;;;;;;;;5053216;28;20435;-54
2021/04/29 02:48:16;;;;;;;4.53;4.13;;;;;;;;;;5053099;28;20539;-54
2021/04/29 02:50:45;;;;;;;5.37;4.57;;;;;;;;;;5053290;28;20407;-54
2021/04/29 02:53:20;;;;;;;5.33;4.83;;;;;;;;;;5053121;28;20882;-55
2021/04/29 02:55:47;;;;;;;6.10;5.00;;;;;;;;;;5053053;28;20451;-54
2021/04/29 02:58:15;;;;;;;5.57;4.97;;;;;;;;;;5053231;28;20427;-54
2021/04/29 03:00:42;;;;;;;6.33;5.57;;;;;;;;;;5053319;28;20499;-54
2021/04/29 03:03:08;;;;;;;7.80;5.53;;;;;;;;;;5052778;28;20480;-54
2021/04/29 03:05:35;;;;;;;8.47;5.60;;;;;;;;;;5053180;28;20436;-54
2021/04/29 03:08:01;;;;;;;6.80;6.10;;;;;;;;;;5052812;28;20413;-54
2021/04/29 03:10:27;;;;;;;6.13;5.53;;;;;;;;;;5052707;28;20449;-54
2021/04/29 03:12:53;;;;;;;11.50;6.20;;;;;;;;;;5052876;28;20811;-54
2021/04/29 03:15:19;;;;;;;6.70;6.00;;;;;;;;;;5052873;28;20820;-54
2021/04/29 03:17:45;;;;;;;6.83;6.20;;;;;;;;;;5052652;28;20423;-54
2021/04/29 03:20:11;;;;;;;7.60;6.50;;;;;;;;;;5052606;28;20393;-54
2021/04/29 03:22:37;;;;;;;7.53;6.30;;;;;;;;;;5053073;28;20400;-54
2021/04/29 03:25:04;;;;;;;10.43;6.60;;;;;;;;;;5052691;28;20558;-54
2021/04/29 03:27:30;;;;;;;7.83;6.73;;;;;;;;;;5052698;28;20882;-55
2021/04/29 03:29:56;;;;;;;8.47;6.70;;;;;;;;;;5052262;28;20404;-54
2021/04/29 03:32:22;;;;;;;10.17;7.90;;;;;;;;;;5052151;28;20844;-54
2021/04/29 03:34:48;;;;;;;10.83;7.67;;;;;;;;;;5051267;28;20407;-55
2021/04/29 03:37:15;;;;;;;9.33;7.10;;;;;;;;;;5052186;28;20898;-54
2021/04/29 03:39:41;;;;;;;9.10;7.00;;;;;;;;;;5052055;28;20507;-54
2021/04/29 03:42:09;;;;;;;13.13;8.37;;;;;;;;;;5052215;28;20481;-54
2021/04/29 03:44:35;;;;;;;9.10;7.97;;;;;;;;;;5052153;28;20408;-54
2021/04/29 03:47:01;;;;;;;9.90;7.77;;;;;;;;;;5051911;28;20803;-55
2021/04/29 03:49:27;;;;;;;9.80;7.70;;;;;;;;;;5051665;28;20464;-54
2021/04/29 03:51:53;;;;;;;12.43;7.50;;;;;;;;;;5052050;28;20461;-54
2021/04/29 03:54:19;;;;;;;13.80;8.90;;;;;;;;;;5051895;28;20781;-54
2021/04/29 03:56:46;;;;;;;12.50;8.03;;;;;;;;;;5051897;28;20459;-55
2021/04/29 03:59:12;;;;;;;12.77;8.60;;;;;;;;;;5051949;28;20431;-54
2021/04/29 04:01:38;;;;;;;10.77;9.10;;;;;;;;;;5051668;28;20754;-54
2021/04/29 04:04:04;;;;;;;8.87;8.00;;;;;;;;;;5051654;28;20407;-54
2021/04/29 04:06:30;;;;;;;14.50;9.30;;;;;;;;;;5051690;28;20428;-54
2021/04/29 04:08:56;;;;;;;12.10;8.30;;;;;;;;;;5051298;28;20428;-54
2021/04/29 04:11:22;;;;;;;10.20;9.07;;;;;;;;;;5051698;28;20408;-54
2021/04/29 04:13:49;;;;;;;9.77;7.57;;;;;;;;;;5051438;28;20486;-55
2021/04/29 04:16:15;;;;;;;15.47;8.40;;;;;;;;;;5051229;28;20448;-54
2021/04/29 04:18:42;;;;;;;11.23;8.43;;;;;;;;;;5051415;28;20438;-54
2021/04/29 04:21:08;;;;;;;12.10;8.93;;;;;;;;;;5051458;28;20457;-54
2021/04/29 04:23:34;;;;;;;9.63;8.60;;;;;;;;;;5051321;28;20408;-54
2021/04/29 04:26:00;;;;;;;9.33;8.17;;;;;;;;;;5051302;28;20406;-54
2021/04/29 04:28:26;;;;;;;12.07;9.10;;;;;;;;;;5051084;28;20426;-54
2021/04/29 04:30:52;;;;;;;14.27;8.87;;;;;;;;;;5050874;28;20451;-54
2021/04/29 04:33:18;;;;;;;12.97;9.27;;;;;;;;;;5051197;28;20430;-54
2021/04/29 04:35:44;;;;;;;11.27;9.17;;;;;;;;;;5051101;28;20971;-54
2021/04/29 04:38:10;;;;;;;11.97;8.50;;;;;;;;;;5051065;28;20442;-54
2021/04/29 04:40:36;;;;;;;9.90;8.80;;;;;;;;;;5050793;28;20477;-54
2021/04/29 04:43:02;;;;;;;10.57;9.07;;;;;;;;;;5051151;28;20478;-54
2021/04/29 04:45:28;;;;;;;12.17;9.77;;;;;;;;;;5050536;28;20410;-54
2021/04/29 04:47:54;;;;;;;10.03;8.93;;;;;;;;;;5050815;28;20890;-55
2021/04/29 04:50:20;;;;;;;14.17;8.80;;;;;;;;;;5050565;28;20541;-54
2021/04/29 04:52:46;;;;;;;14.53;10.13;;;;;;;;;;5050816;28;20405;-54
2021/04/29 04:55:12;;;;;;;17.00;9.20;;;;;;;;;;5050664;28;20408;-54
2021/04/29 04:57:38;;;;;;;14.60;8.57;;;;;;;;;;5050826;28;20423;-54
2021/04/29 05:00:05;;;;;;;14.40;10.10;;;;;;;;;;5050377;28;20781;-54
2021/04/29 05:02:31;;;;;;;13.33;8.80;;;;;;;;;;5050688;28;20447;-54
2021/04/29 05:04:59;;;;;;;13.90;9.83;;;;;;;;;;5050566;28;20410;-55
2021/04/29 05:07:25;;;;;;;14.60;11.67;;;;;;;;;;5050631;28;20459;-55
2021/04/29 05:09:51;;;;;;;16.33;13.67;;;;;;;;;;5050490;28;20410;-54
2021/04/29 05:12:17;;;;;;;18.90;14.00;;;;;;;;;;5050784;28;20460;-54
2021/04/29 05:14:43;;;;;;;24.07;15.60;;;;;;;;;;5050789;28;20446;-54
2021/04/29 05:17:09;;;;;;;20.73;14.87;;;;;;;;;;5050682;28;20456;-54
2021/04/29 05:19:36;;;;;;;25.13;17.10;;;;;;;;;;5050735;28;20411;-54
2021/04/29 05:22:02;;;;;;;24.60;15.80;;;;;;;;;;5051012;28;20817;-54
2021/04/29 05:24:28;;;;;;;21.40;16.20;;;;;;;;;;5050976;28;20406;-54
2021/04/29 05:26:54;;;;;;;24.00;16.30;;;;;;;;;;5051159;28;20407;-54
2021/04/29 05:29:20;;;;;;;23.47;16.67;;;;;;;;;;5050335;28;20474;-54
2021/04/29 05:31:46;;;;;;;21.80;15.83;;;;;;;;;;5050516;28;20406;-54
2021/04/29 05:34:12;;;;;;;23.30;16.77;;;;;;;;;;5050894;28;20406;-54
2021/04/29 05:36:38;;;;;;;24.43;17.97;;;;;;;;;;5050372;28;20453;-54
2021/04/29 05:39:04;;;;;;;31.00;18.23;;;;;;;;;;5050007;28;20447;-54
2021/04/29 05:41:31;;;;;;;27.00;18.97;;;;;;;;;;5050202;28;20417;-54
2021/04/29 05:43:57;;;;;;;22.53;17.50;;;;;;;;;;5050411;28;20444;-54
2021/04/29 05:46:23;;;;;;;31.70;19.30;;;;;;;;;;5050265;28;20438;-54
2021/04/29 05:48:49;;;;;;;30.20;19.17;;;;;;;;;;5050223;28;20426;-54
2021/04/29 05:51:15;;;;;;;25.57;19.80;;;;;;;;;;5050244;28;20472;-54
2021/04/29 05:53:41;;;;;;;25.40;18.93;;;;;;;;;;5050323;28;20443;-54
2021/04/29 05:56:07;;;;;;;25.30;20.03;;;;;;;;;;5050016;28;20453;-54
2021/04/29 05:58:34;;;;;;;31.70;21.87;;;;;;;;;;5052687;28;20429;-54
2021/04/29 06:01:02;;;;;;;29.87;21.13;;;;;;;;;;5053916;28;20398;-54
2021/04/29 06:03:27;;;;;;;33.30;22.73;;;;;;;;;;5053915;28;20393;-54
2021/04/29 06:05:53;;;;;;;31.90;21.60;;;;;;;;;;5053994;28;20804;-54
2021/04/29 06:08:19;;;;;;;28.77;21.63;;;;;;;;;;5053808;28;20484;-54
2021/04/29 06:10:45;;;;;;;28.47;21.87;;;;;;;;;;5053566;28;20489;-54
2021/04/29 06:13:11;;;;;;;33.07;22.93;;;;;;;;;;5053702;28;20426;-54
2021/04/29 06:15:37;;;;;;;29.40;22.40;;;;;;;;;;5053695;28;20457;-54
2021/04/29 06:18:04;;;;;;;35.33;25.10;;;;;;;;;;5053833;28;20719;-54
2021/04/29 06:20:30;;;;;;;31.40;24.30;;;;;;;;;;5053488;28;20416;-55
2021/04/29 06:22:56;;;;;;;33.27;23.13;;;;;;;;;;5053605;28;20403;-54
2021/04/29 06:25:23;;;;;;;29.97;22.17;;;;;;;;;;5053913;28;20398;-54
2021/04/29 06:27:49;;;;;;;34.80;22.10;;;;;;;;;;5053349;28;20426;-54
2021/04/29 06:30:15;;;;;;;32.60;22.30;;;;;;;;;;5052957;28;20404;-54
2021/04/29 06:32:42;;;;;;;32.70;23.73;;;;;;;;;;5052967;28;20399;-54
2021/04/29 06:35:09;;;;;;;29.77;23.63;;;;;;;;;;5052871;28;20395;-54
2021/04/29 06:37:35;;;;;;;33.13;23.00;;;;;;;;;;5052723;28;20868;-54
2021/04/29 06:40:01;;;;;;;36.53;24.17;;;;;;;;;;5052430;28;20399;-54
2021/04/29 06:42:27;;;;;;;34.03;24.73;;;;;;;;;;5053304;28;20892;-54
2021/04/29 06:44:53;;;;;;;33.37;25.00;;;;;;;;;;5053159;28;20398;-54
2021/04/29 06:47:22;;;;;;;35.30;24.30;;;;;;;;;;5053184;28;20433;-54
2021/04/29 06:49:49;;;;;;;31.67;24.60;;;;;;;;;;5052885;28;20684;-54
2021/04/29 06:52:17;;;;;;;30.37;23.87;;;;;;;;;;5053148;28;20812;-54
2021/04/29 06:54:44;;;;;;;33.70;24.70;;;;;;;;;;5052984;28;20415;-55
2021/04/29 06:57:10;;;;;;;35.43;24.80;;;;;;;;;;5052917;28;20487;-54
2021/04/29 06:59:36;;;;;;;37.00;24.87;;;;;;;;;;5052758;28;20403;-54
2021/04/29 07:02:02;;;;;;;35.03;26.07;;;;;;;;;;5052979;28;20461;-54
2021/04/29 07:04:28;;;;;;;39.17;25.10;;;;;;;;;;5052740;28;20486;-54
2021/04/29 07:06:54;;;;;;;34.73;24.70;;;;;;;;;;5052820;28;20417;-55
2021/04/29 07:09:20;;;;;;;36.00;24.80;;;;;;;;;;5052190;28;20730;-55
2021/04/29 07:11:46;;;;;;;32.00;23.57;;;;;;;;;;5052746;28;20797;-54
2021/04/29 07:14:12;;;;;;;32.13;23.87;;;;;;;;;;5034768;28;20449;-54
2021/04/29 07:16:38;;;;;;;33.20;24.00;;;;;;;;;;5052673;28;20480;-54
2021/04/29 07:19:04;;;;;;;32.13;24.23;;;;;;;;;;5052334;28;20427;-55
2021/04/29 07:21:29;;;;;;;38.00;27.23;;;;;;;;;;5053198;28;20429;-52
2021/04/29 07:23:56;;;;;;;29.33;23.97;;;;;;;;;;5052788;28;20411;-51
2021/04/29 07:26:22;;;;;;;34.73;24.93;;;;;;;;;;5052592;28;20423;-51
2021/04/29 07:28:48;;;;;;;33.37;24.40;;;;;;;;;;5052236;28;20457;-52
2021/04/29 07:31:14;;;;;;;33.20;24.03;;;;;;;;;;5052637;28;20439;-51
2021/04/29 07:33:40;;;;;;;34.77;24.57;;;;;;;;;;5052516;28;20404;-52
2021/04/29 07:36:06;;;;;;;34.77;25.60;;;;;;;;;;5052276;28;20507;-52
2021/04/29 07:38:32;;;;;;;39.00;26.57;;;;;;;;;;5052126;28;20444;-51
2021/04/29 07:40:58;;;;;;;47.80;26.37;;;;;;;;;;5051645;28;20385;-52
2021/04/29 07:43:24;;;;;;;36.30;25.40;;;;;;;;;;5052173;28;20494;-53
2021/04/29 07:45:52;;;;;;;33.43;24.50;;;;;;;;;;5052047;28;20512;-52
2021/04/29 07:48:17;;;;;;;34.50;25.37;;;;;;;;;;5052120;28;20427;-52
2021/04/29 07:50:43;;;;;;;34.93;24.40;;;;;;;;;;5051689;28;20401;-52
2021/04/29 07:53:09;;;;;;;35.73;25.00;;;;;;;;;;5051884;28;20511;-54
2021/04/29 07:55:36;;;;;;;29.90;24.83;;;;;;;;;;5051737;28;20427;-55
2021/04/29 07:58:03;;;;;;;34.10;25.73;;;;;;;;;;5052110;28;20824;-52
2021/04/29 08:00:29;;;;;;;31.97;24.23;;;;;;;;;;5051585;28;20401;-52
2021/04/29 08:02:55;;;;;;;29.60;23.47;;;;;;;;;;5051777;28;20401;-55
2021/04/29 08:05:21;;;;;;;30.83;23.60;;;;;;;;;;5051561;28;20368;-55
2021/04/29 08:07:48;;;;;;;31.97;23.40;;;;;;;;;;5051619;28;20424;-52
2021/04/29 08:10:14;;;;;;;35.43;26.00;;;;;;;;;;5051263;28;20394;-55
2021/04/29 08:12:41;;;;;;;34.43;25.37;;;;;;;;;;5051575;28;20388;-53
2021/04/29 08:15:07;;;;;;;33.83;24.30;;;;;;;;;;5051532;28;20405;-53
2021/04/29 08:17:33;;;;;;;35.60;28.13;;;;;;;;;;5051290;28;20442;-52
2021/04/29 08:19:59;;;;;;;31.40;25.70;;;;;;;;;;5050659;28;20376;-55
2021/04/29 08:22:26;;;;;;;40.13;28.60;;;;;;;;;;5051348;28;20384;-54
2021/04/29 08:24:53;;;;;;;38.53;28.77;;;;;;;;;;5051411;28;20390;-52
2021/04/29 08:27:19;;;;;;;41.67;29.93;;;;;;;;;;5051242;28;20402;-55
2021/04/29 08:29:45;;;;;;;38.30;31.80;;;;;;;;;;5051109;28;20421;-52
2021/04/29 08:32:11;;;;;;;42.80;34.13;;;;;;;;;;5051264;28;20433;-52
2021/04/29 08:34:36;;;;;;;45.83;33.07;;;;;;;;;;5051180;28;20455;-51
2021/04/29 08:37:02;;;;;;;47.57;35.50;;;;;;;;;;5050977;28;20424;-52
2021/04/29 08:39:29;;;;;;;47.50;34.83;;;;;;;;;;5050656;28;20392;-52
2021/04/29 08:41:55;;;;;;;49.47;35.40;;;;;;;;;;5055346;28;20533;-52
2021/04/29 08:44:21;;;;;;;48.13;33.63;;;;;;;;;;5070989;28;20397;-52
2021/04/29 08:46:47;;;;;;;56.47;35.70;;;;;;;;;;5070860;28;20374;-52
2021/04/29 08:49:15;;;;;;;48.20;36.40;;;;;;;;;;5070611;28;20424;-52
2021/04/29 08:51:41;;;;;;;50.27;36.80;;;;;;;;;;5071027;28;20382;-53
2021/04/29 08:54:07;;;;;;;48.77;36.80;;;;;;;;;;5070852;28;20367;-52
2021/04/29 08:56:33;;;;;;;54.43;37.87;;;;;;;;;;5070741;28;20859;-52
2021/04/29 08:59:00;;;;;;;48.73;36.33;;;;;;;;;;5070497;28;20769;-52
2021/04/29 09:01:26;;;;;;;53.70;34.97;;;;;;;;;;5070872;28;20851;-52
2021/04/29 09:03:52;;;;;;;48.27;36.77;;;;;;;;;;5070600;28;20429;-52
2021/04/29 09:06:30;;;;;;;46.13;34.07;;;;;;;;;;5070757;28;20413;-54
2021/04/29 09:08:58;;;;;;;47.67;34.07;;;;;;;;;;5070370;28;20946;-55
2021/04/29 09:11:24;;;;;;;47.00;34.10;;;;;;;;;;5070672;28;20375;-56
2021/04/29 09:13:56;;;;;;;44.93;32.30;;;;;;;;;;5070634;28;20400;-55
2021/04/29 09:16:22;;;;;;;42.60;33.40;;;;;;;;;;5070569;28;20527;-52
2021/04/29 09:18:49;;;;;;;41.67;32.13;;;;;;;;;;5070250;28;20395;-52
2021/04/29 09:21:15;;;;;;;67.50;37.13;;;;;;;;;;5070867;28;20378;-56
2021/04/29 09:23:44;;;;;;;56.80;36.07;;;;;;;;;;5070513;28;20400;-53
2021/04/29 09:26:11;;;;;;;40.57;32.67;;;;;;;;;;5070760;28;20403;-52
2021/04/29 09:28:51;;;;;;;50.80;33.53;;;;;;;;;;5070809;28;20548;-55
2021/04/29 09:31:18;;;;;;;50.73;33.10;;;;;;;;;;5070413;28;20378;-52
2021/04/29 09:33:45;;;;;;;37.83;30.13;;;;;;;;;;5073915;28;20383;-52
2021/04/29 09:36:21;;;;;;;36.50;27.87;;;;;;;;;;5074432;28;20426;-52
2021/04/29 09:38:52;;;;;;;39.23;28.20;;;;;;;;;;5053519;28;21095;-53
2021/04/29 09:41:21;;;;;;;43.63;29.10;;;;;;;;;;5054087;28;20416;-54
2021/04/29 09:43:54;;;;;;;38.73;28.90;;;;;;;;;;5054480;28;20372;-53
2021/04/29 09:46:20;;;;;;;40.47;29.03;;;;;;;;;;5054332;28;20387;-53
2021/04/29 09:48:48;;;;;;;39.10;27.07;;;;;;;;;;5054041;28;20406;-53
2021/04/29 09:51:17;;;;;;;39.43;26.10;;;;;;;;;;5054222;28;20402;-53
2021/04/29 09:53:47;;;;;;;39.10;24.63;;;;;;;;;;5054001;28;20748;-52
2021/04/29 09:56:13;;;;;;;27.73;23.50;;;;;;;;;;5054233;28;20424;-53
2021/04/29 09:58:45;;;;;;;33.63;25.83;;;;;;;;;;5053957;28;20388;-52
2021/04/29 10:01:11;;;;;;;30.53;25.10;;;;;;;;;;5054019;28;20407;-53
2021/04/29 10:03:38;;;;;;;29.90;24.80;;;;;;;;;;5053972;28;20402;-54
2021/04/29 10:06:05;;;;;;;28.57;24.37;;;;;;;;;;5053804;28;20907;-53
2021/04/29 10:08:34;;;;;;;29.10;24.50;;;;;;;;;;5053721;28;20429;-55
2021/04/29 10:11:01;;;;;;;24.70;22.00;;;;;;;;;;5053848;28;20429;-55
2021/04/29 10:13:31;;;;;;;29.00;23.83;;;;;;;;;;5053695;28;20459;-54
2021/04/29 10:15:57;;;;;;;25.37;21.50;;;;;;;;;;5053852;28;20832;-55
2021/04/29 10:18:23;;;;;;;25.10;20.70;;;;;;;;;;5053617;28;20838;-53
2021/04/29 10:20:50;;;;;;;24.80;21.27;;;;;;;;;;5053294;28;20413;-55
2021/04/29 10:23:17;;;;;;;22.10;19.47;;;;;;;;;;5053986;28;20898;-54
2021/04/29 10:25:49;;;;;;;25.40;19.63;;;;;;;;;;5053690;28;20412;-56
2021/04/29 10:28:15;;;;;;;20.30;16.73;;;;;;;;;;5053493;28;20424;-53
2021/04/29 10:30:41;;;;;;;18.10;16.07;;;;;;;;;;5053133;28;20492;-53
2021/04/29 10:33:15;;;;;;;21.10;18.00;;;;;;;;;;5053833;28;20888;-53
2021/04/29 10:35:51;;;;;;;20.90;17.57;;;;;;;;;;5053530;28;20460;-53
2021/04/29 10:38:29;;;;;;;20.33;16.07;;;;;;;;;;5053122;28;20452;-52
2021/04/29 10:40:56;;;;;;;18.20;14.10;;;;;;;;;;5053038;28;20777;-53
2021/04/29 10:43:29;;;;;;;26.07;15.33;;;;;;;;;;5052685;28;20416;-54
2021/04/29 10:45:55;;;;;;;19.63;15.23;;;;;;;;;;5052797;28;20403;-53
2021/04/29 10:48:24;;;;;;;19.63;15.43;;;;;;;;;;5053142;28;20417;-52
2021/04/29 10:50:51;;;;;;;19.17;15.73;;;;;;;;;;5052991;28;20401;-53
2021/04/29 10:53:38;;;;;;;18.23;14.77;;;;;;;;;;5053354;28;20405;-53
2021/04/29 10:56:06;;;;;;;18.07;14.90;;;;;;;;;;5052614;28;20984;-53
2021/04/29 10:58:32;;;;;;;18.23;13.97;;;;;;;;;;5052922;28;20798;-54
2021/04/29 11:01:24;;;;;;;17.70;15.90;;;;;;;;;;5052832;28;20451;-53
2021/04/29 11:03:51;;;;;;;18.03;16.03;;;;;;;;;;5050214;28;20424;-53
2021/04/29 11:06:26;;;;;;;17.10;15.20;;;;;;;;;;5052691;28;20405;-54
2021/04/29 11:08:53;;;;;;;19.10;16.33;;;;;;;;;;5052561;28;20961;-53
2021/04/29 11:11:22;;;;;;;17.97;14.90;;;;;;;;;;5052988;28;20919;-52
2021/04/29 11:14:08;;;;;;;18.00;15.00;;;;;;;;;;5052783;28;20394;-53
2021/04/29 11:16:53;;;;;;;14.43;12.93;;;;;;;;;;5052765;28;21015;-54
2021/04/29 11:19:34;;;;;;;16.00;14.40;;;;;;;;;;5052512;28;20960;-53
2021/04/29 11:22:01;;;;;;;15.60;14.17;;;;;;;;;;5052658;28;20931;-54
2021/04/29 11:24:32;;;;;;;16.17;14.40;;;;;;;;;;5052589;28;20401;-53
2021/04/29 11:26:58;;;;;;;17.53;14.53;;;;;;;;;;5034781;28;20445;-56
2021/04/29 11:29:24;;;;;;;17.63;15.60;;;;;;;;;;5052147;28;20461;-57
2021/04/29 11:31:50;;;;;;;16.50;14.90;;;;;;;;;;5052489;28;20920;-55
2021/04/29 11:34:16;;;;;;;17.40;15.67;;;;;;;;;;5052380;28;20579;-55
2021/04/29 11:36:42;;;;;;;20.10;14.50;;;;;;;;;;5051104;28;20449;-52
2021/04/29 11:39:08;;;;;;;20.10;15.30;;;;;;;;;;5051128;28;20472;-53
2021/04/29 11:41:34;;;;;;;18.50;15.57;;;;;;;;;;5051662;28;20393;-54
2021/04/29 11:44:00;;;;;;;17.57;14.93;;;;;;;;;;5052381;28;20447;-55
2021/04/29 11:46:27;;;;;;;17.63;15.80;;;;;;;;;;5052636;28;20919;-54
2021/04/29 11:48:56;;;;;;;19.90;15.90;;;;;;;;;;5051977;28;20433;-54
2021/04/29 11:51:23;;;;;;;18.73;16.50;;;;;;;;;;5052238;28;20401;-55
2021/04/29 11:53:49;;;;;;;22.30;14.83;;;;;;;;;;5052149;28;20405;-54
2021/04/29 11:56:15;;;;;;;24.40;15.57;;;;;;;;;;5051132;28;20453;-56
2021/04/29 11:58:41;;;;;;;23.60;14.43;;;;;;;;;;5051752;28;20536;-53
2021/04/29 12:01:13;;;;;;;18.40;14.43;;;;;;;;;;5051952;28;20398;-53
2021/04/29 12:03:39;;;;;;;14.47;12.97;;;;;;;;;;5052035;28;20364;-52
2021/04/29 12:06:05;;;;;;;17.50;14.97;;;;;;;;;;5051770;28;20401;-52
2021/04/29 12:08:33;;;;;;;22.50;16.00;;;;;;;;;;5051796;28;21004;-52
2021/04/29 12:11:01;;;;;;;23.23;18.10;;;;;;;;;;5051846;28;20444;-52
2021/04/29 12:13:30;;;;;;;24.83;19.30;;;;;;;;;;5051801;28;20413;-52
2021/04/29 12:15:56;;;;;;;27.40;17.60;;;;;;;;;;5051578;28;21047;-55
2021/04/29 12:18:22;;;;;;;17.00;14.23;;;;;;;;;;5051632;28;20424;-52
2021/04/29 12:20:48;;;;;;;18.83;14.30;;;;;;;;;;5051360;28;20751;-52
2021/04/29 12:23:15;;;;;;;17.13;13.77;;;;;;;;;;5051598;28;21023;-52
2021/04/29 12:25:41;;;;;;;16.80;13.73;;;;;;;;;;5051401;28;20939;-52
2021/04/29 12:28:16;;;;;;;16.63;14.10;;;;;;;;;;5051421;28;20396;-52
2021/04/29 12:30:42;;;;;;;15.37;13.50;;;;;;;;;;5051078;28;20383;-52
2021/04/29 12:33:21;;;;;;;17.07;12.80;;;;;;;;;;5051369;28;20408;-53
2021/04/29 12:35:47;;;;;;;16.47;13.03;;;;;;;;;;5051210;28;20456;-52
2021/04/29 12:38:14;;;;;;;14.27;12.60;;;;;;;;;;5051106;28;20965;-54
2021/04/29 12:40:40;;;;;;;13.83;12.53;;;;;;;;;;5051052;28;20416;-54
2021/04/29 12:43:14;;;;;;;15.10;13.50;;;;;;;;;;5051224;28;20398;-53
2021/04/29 12:45:56;;;;;;;12.30;11.10;;;;;;;;;;5051106;28;20429;-52
2021/04/29 12:48:25;;;;;;;13.87;12.60;;;;;;;;;;5051090;28;20468;-54
2021/04/29 12:51:01;;;;;;;16.07;14.37;;;;;;;;;;5050707;28;20414;-52
2021/04/29 12:53:27;;;;;;;18.60;13.80;;;;;;;;;;5051054;28;20908;-52
2021/04/29 12:55:53;;;;;;;21.87;14.20;;;;;;;;;;5068194;28;20456;-52
2021/04/29 12:58:29;;;;;;;16.47;13.33;;;;;;;;;;5070932;28;20442;-51
2021/04/29 13:00:55;;;;;;;13.30;12.00;;;;;;;;;;5070561;28;20494;-51
2021/04/29 13:03:35;;;;;;;14.50;13.27;;;;;;;;;;5070732;28;20412;-54
2021/04/29 13:06:06;;;;;;;14.70;13.10;;;;;;;;;;5069988;28;20438;-52
2021/04/29 13:08:45;;;;;;;16.97;13.93;;;;;;;;;;5070621;28;20824;-59
2021/04/29 13:11:11;;;;;;;13.90;12.77;;;;;;;;;;5070824;28;20451;-52
2021/04/29 13:13:37;;;;;;;14.17;12.90;;;;;;;;;;5052685;28;20826;-52
2021/04/29 13:16:02;;;;;;;12.40;10.57;;;;;;;;;;5070581;28;20969;-54
2021/04/29 13:18:29;;;;;;;10.93;9.90;;;;;;;;;;5070646;28;20932;-53
2021/04/29 13:20:58;;;;;;;13.03;11.43;;;;;;;;;;5070795;28;20415;-52
2021/04/29 13:23:24;;;;;;;8.80;8.00;;;;;;;;;;5070675;28;20403;-54
2021/04/29 13:25:50;;;;;;;9.57;8.73;;;;;;;;;;5070610;28;20402;-53
2021/04/29 13:28:16;;;;;;;8.53;7.83;;;;;;;;;;5070474;28;20433;-54
2021/04/29 13:30:42;;;;;;;8.57;7.80;;;;;;;;;;5070354;28;20495;-54
2021/04/29 13:33:10;;;;;;;9.13;8.33;;;;;;;;;;5070478;28;20923;-54
2021/04/29 13:35:36;;;;;;;8.90;8.10;;;;;;;;;;5070605;28;20404;-54
2021/04/29 13:38:03;;;;;;;14.57;9.03;;;;;;;;;;5070203;28;20483;-54
2021/04/29 13:40:29;;;;;;;13.20;9.60;;;;;;;;;;5070208;28;20432;-53
2021/04/29 13:42:55;;;;;;;19.60;9.67;;;;;;;;;;5070340;28;20407;-54
2021/04/29 13:45:20;;;;;;;12.63;11.17;;;;;;;;;;5070890;28;20406;-54
2021/04/29 13:47:48;;;;;;;11.83;10.70;;;;;;;;;;5063284;28;20785;-54
2021/04/29 13:50:14;;;;;;;12.10;10.87;;;;;;;;;;5070135;28;20416;-54
2021/04/29 13:52:40;;;;;;;13.70;11.57;;;;;;;;;;5070429;28;20404;-54
2021/04/29 13:55:09;;;;;;;16.70;13.40;;;;;;;;;;5070542;28;20767;-54
2021/04/29 13:57:35;;;;;;;16.43;13.00;;;;;;;;;;5070134;28;20459;-54
2021/04/29 14:00:01;;;;;;;14.20;12.33;;;;;;;;;;5070243;28;20806;-54
2021/04/29 14:02:27;;;;;;;16.03;14.40;;;;;;;;;;5070246;28;20411;-54
2021/04/29 14:04:53;;;;;;;16.30;12.40;;;;;;;;;;5070433;28;20467;-54
2021/04/29 14:07:19;;;;;;;16.67;14.43;;;;;;;;;;5070180;28;20795;-54
2021/04/29 14:09:46;;;;;;;15.30;12.47;;;;;;;;;;5069833;28;20404;-54
2021/04/29 14:12:12;;;;;;;14.77;12.70;;;;;;;;;;5070008;28;20411;-54
2021/04/29 14:14:38;;;;;;;18.20;15.13;;;;;;;;;;5069529;28;20900;-54
2021/04/29 14:17:04;;;;;;;20.40;14.83;;;;;;;;;;5069960;28;20594;-54
2021/04/29 14:19:30;;;;;;;18.73;14.30;;;;;;;;;;5071893;28;20431;-54
2021/04/29 14:21:59;;;;;;;15.70;13.33;;;;;;;;;;5073813;28;20389;-54
2021/04/29 14:24:25;;;;;;;17.00;14.60;;;;;;;;;;5073537;28;20453;-54
2021/04/29 14:26:51;;;;;;;16.90;13.73;;;;;;;;;;5073674;28;20423;-54